FWI40J LFPO-TFFR
Flight info
| Callsign | FWI40J |
|---|---|
| Flight time | N/A |
| Altitude | 36000 |
| Route | LGL UN491 OTOFE DCT ALUTA DCT TAKAS/M085F360 DCT OMOKO DCT 4730N02000W 45N030W 4030N04000W/M085F380 34N050W 30N055W 24N059W/M085F400 DCT BNJEE/N0487F400 DCT BOSET BOSET2A |
| Aircraft | A35K/H-SDE2E3GHIJ3J4J5LM1ORWXY/LB1D1 |
Departure
| Time | N/A |
|---|---|
| Airport | Paris-Orly Airport (LFPO) |
Arrival
| Time | 2026-04-24 19:15 |
|---|---|
| Airport | Maryse Condé International Airport (TFFR) |
| Time | Latitude | Longitude | Altitude | Speed | Heading |
|---|---|---|---|---|---|
| 2026-04-24 18:54 | 17.37029 | -60.56333 | 36590 ft | 444 kts | 222° |
| 2026-04-24 18:55 | 17.32342 | -60.60506 | 35185 ft | 447 kts | 222° |
| 2026-04-24 18:55 | 17.29963 | -60.62623 | 34367 ft | 451 kts | 222° |
| 2026-04-24 18:55 | 17.27555 | -60.64765 | 33459 ft | 456 kts | 222° |
| 2026-04-24 18:56 | 17.25125 | -60.66926 | 32537 ft | 460 kts | 222° |
| 2026-04-24 18:56 | 17.22705 | -60.69136 | 31614 ft | 463 kts | 226° |
| 2026-04-24 18:56 | 17.20497 | -60.71613 | 30584 ft | 469 kts | 231° |
| 2026-04-24 18:56 | 17.18356 | -60.74225 | 29455 ft | 475 kts | 231° |
| 2026-04-24 18:57 | 17.16208 | -60.76867 | 28570 ft | 475 kts | 231° |
| 2026-04-24 18:57 | 17.14065 | -60.79494 | 27842 ft | 472 kts | 231° |
| 2026-04-24 18:57 | 17.11938 | -60.82095 | 27092 ft | 469 kts | 231° |
| 2026-04-24 18:57 | 17.09820 | -60.84682 | 26334 ft | 468 kts | 231° |
| 2026-04-24 18:58 | 17.07708 | -60.87258 | 25588 ft | 466 kts | 230° |
| 2026-04-24 18:58 | 17.05607 | -60.89821 | 24856 ft | 458 kts | 230° |
| 2026-04-24 18:58 | 17.03560 | -60.92313 | 24120 ft | 449 kts | 230° |
| 2026-04-24 18:58 | 17.01528 | -60.94788 | 23358 ft | 449 kts | 230° |
| 2026-04-24 18:59 | 16.99522 | -60.97229 | 22569 ft | 447 kts | 230° |
| 2026-04-24 18:59 | 16.97477 | -60.99718 | 21814 ft | 444 kts | 230° |
| 2026-04-24 18:59 | 16.95470 | -61.02159 | 21095 ft | 441 kts | 230° |
| 2026-04-24 18:59 | 16.93498 | -61.04556 | 20372 ft | 439 kts | 230° |
| 2026-04-24 19:00 | 16.91511 | -61.06972 | 19625 ft | 437 kts | 230° |
| 2026-04-24 19:00 | 16.89523 | -61.09387 | 18897 ft | 436 kts | 230° |
| 2026-04-24 19:00 | 16.87553 | -61.11779 | 18218 ft | 433 kts | 230° |
| 2026-04-24 19:00 | 16.85605 | -61.14145 | 17372 ft | 420 kts | 230° |
| 2026-04-24 19:01 | 16.83732 | -61.16417 | 16535 ft | 410 kts | 230° |
| 2026-04-24 19:01 | 16.81872 | -61.18676 | 15770 ft | 410 kts | 230° |
| 2026-04-24 19:01 | 16.80010 | -61.20935 | 15010 ft | 410 kts | 230° |
| 2026-04-24 19:01 | 16.78148 | -61.23193 | 14252 ft | 410 kts | 230° |
| 2026-04-24 19:02 | 16.76919 | -61.24683 | 13777 ft | 409 kts | 230° |
| 2026-04-24 19:02 | 16.74486 | -61.27630 | 12659 ft | 390 kts | 229° |
| 2026-04-24 19:02 | 16.72748 | -61.29735 | 11929 ft | 386 kts | 229° |
| 2026-04-24 19:02 | 16.70998 | -61.31855 | 11205 ft | 385 kts | 229° |
| 2026-04-24 19:03 | 16.69276 | -61.33939 | 10969 ft | 371 kts | 229° |
| 2026-04-24 19:03 | 16.67630 | -61.35931 | 10843 ft | 354 kts | 229° |
| 2026-04-24 19:03 | 16.66057 | -61.37835 | 10733 ft | 339 kts | 229° |
| 2026-04-24 19:03 | 16.64555 | -61.39651 | 10592 ft | 324 kts | 229° |
| 2026-04-24 19:04 | 16.63112 | -61.41397 | 10478 ft | 311 kts | 229° |
| 2026-04-24 19:04 | 16.61726 | -61.43073 | 10345 ft | 299 kts | 229° |
| 2026-04-24 19:04 | 16.60395 | -61.44682 | 10193 ft | 289 kts | 229° |
| 2026-04-24 19:04 | 16.59089 | -61.46260 | 9835 ft | 288 kts | 229° |
| 2026-04-24 19:05 | 16.57772 | -61.47852 | 9439 ft | 291 kts | 229° |
| 2026-04-24 19:05 | 16.56451 | -61.49447 | 9062 ft | 290 kts | 229° |
| 2026-04-24 19:05 | 16.55138 | -61.51034 | 8691 ft | 288 kts | 229° |
| 2026-04-24 19:05 | 16.53830 | -61.52613 | 8315 ft | 286 kts | 229° |
| 2026-04-24 19:06 | 16.52532 | -61.54179 | 7947 ft | 284 kts | 229° |
| 2026-04-24 19:06 | 16.51245 | -61.55733 | 7571 ft | 283 kts | 229° |
| 2026-04-24 19:06 | 16.49961 | -61.57283 | 7218 ft | 281 kts | 228° |
| 2026-04-24 19:06 | 16.48705 | -61.58797 | 6863 ft | 279 kts | 228° |
| 2026-04-24 19:07 | 16.47455 | -61.60339 | 6480 ft | 278 kts | 230° |
| 2026-04-24 19:07 | 16.46295 | -61.61944 | 6098 ft | 276 kts | 233° |
| 2026-04-24 19:07 | 16.45551 | -61.63052 | 5851 ft | 274 kts | 234° |
| 2026-04-24 19:07 | 16.44152 | -61.65229 | 5389 ft | 272 kts | 235° |
| 2026-04-24 19:08 | 16.43120 | -61.66860 | 5178 ft | 264 kts | 235° |
| 2026-04-24 19:08 | 16.42045 | -61.68353 | 5067 ft | 251 kts | 227° |
| 2026-04-24 19:08 | 16.40802 | -61.69562 | 4969 ft | 239 kts | 216° |
| 2026-04-24 19:08 | 16.39414 | -61.70436 | 4868 ft | 227 kts | 204° |
| 2026-04-24 19:09 | 16.37963 | -61.70947 | 4777 ft | 213 kts | 192° |
| 2026-04-24 19:09 | 16.36550 | -61.71209 | 4656 ft | 200 kts | 188° |
| 2026-04-24 19:09 | 16.35196 | -61.71414 | 4468 ft | 193 kts | 188° |
| 2026-04-24 19:09 | 16.33891 | -61.71608 | 4268 ft | 188 kts | 187° |
| 2026-04-24 19:10 | 16.32581 | -61.71801 | 4046 ft | 191 kts | 187° |
| 2026-04-24 19:10 | 16.31263 | -61.71952 | 3867 ft | 190 kts | 180° |
| 2026-04-24 19:10 | 16.30066 | -61.71481 | 3674 ft | 188 kts | 137° |
| 2026-04-24 19:10 | 16.29512 | -61.70287 | 3415 ft | 184 kts | 99° |
| 2026-04-24 19:11 | 16.29389 | -61.68961 | 3177 ft | 184 kts | 96° |
| 2026-04-24 19:11 | 16.29207 | -61.67671 | 2883 ft | 181 kts | 102° |
| 2026-04-24 19:11 | 16.28965 | -61.66394 | 2538 ft | 179 kts | 102° |
| 2026-04-24 19:11 | 16.28725 | -61.65119 | 2164 ft | 180 kts | 102° |
| 2026-04-24 19:12 | 16.28491 | -61.63836 | 1870 ft | 178 kts | 101° |
| 2026-04-24 19:12 | 16.28268 | -61.62605 | 1623 ft | 170 kts | 101° |
| 2026-04-24 19:12 | 16.28049 | -61.61431 | 1388 ft | 160 kts | 102° |
| 2026-04-24 19:12 | 16.27849 | -61.60329 | 1172 ft | 150 kts | 101° |
| 2026-04-24 19:13 | 16.27722 | -61.59636 | 1039 ft | 145 kts | 102° |
| 2026-04-24 19:13 | 16.27477 | -61.58297 | 790 ft | 139 kts | 102° |
| 2026-04-24 19:13 | 16.27303 | -61.57306 | 615 ft | 140 kts | 103° |
| 2026-04-24 19:13 | 16.27115 | -61.56319 | 407 ft | 139 kts | 103° |
| 2026-04-24 19:14 | 16.26932 | -61.55321 | 241 ft | 141 kts | 103° |
| 2026-04-24 19:14 | 16.26755 | -61.54347 | 45 ft | 137 kts | 105° |
| 2026-04-24 19:14 | 16.26579 | -61.53440 | 32 ft | 108 kts | 101° |
| 2026-04-24 19:14 | 16.26464 | -61.52824 | 33 ft | 68 kts | 101° |
| 2026-04-24 19:15 | 16.26394 | -61.52450 | 39 ft | 44 kts | 101° |
| 2026-04-24 19:15 | 16.26372 | -61.52330 | 43 ft | 12 kts | 101° |
| 2026-04-24 19:15 | 16.26372 | -61.52252 | 45 ft | 9 kts | 52° |
| 2026-04-24 19:15 | 16.26439 | -61.52228 | 44 ft | 12 kts | 12° |
| 2026-04-24 19:16 | 16.26633 | -61.52189 | 32 ft | 16 kts | 10° |
| 2026-04-24 19:16 | 16.26725 | -61.52201 | 30 ft | 14 kts | 307° |
| 2026-04-24 19:16 | 16.26744 | -61.52297 | 29 ft | 15 kts | 282° |
| 2026-04-24 19:17 | 16.26766 | -61.52413 | 29 ft | 18 kts | 281° |
| 2026-04-24 19:17 | 16.26790 | -61.52547 | 29 ft | 18 kts | 281° |
| 2026-04-24 19:17 | 16.26815 | -61.52683 | 29 ft | 14 kts | 281° |
| 2026-04-24 19:17 | 16.26818 | -61.52699 | 29 ft | 2 kts | 281° |
| 2026-04-24 19:18 | 16.26823 | -61.52725 | 29 ft | 5 kts | 281° |
| 2026-04-24 19:18 | 16.26841 | -61.52758 | 29 ft | 4 kts | 329° |
| 2026-04-24 19:18 | 16.26865 | -61.52755 | 29 ft | 5 kts | 17° |
| 2026-04-24 19:18 | 16.26901 | -61.52733 | 29 ft | 5 kts | 31° |
| 2026-04-24 19:19 | 16.26905 | -61.52730 | 29 ft | 0 kts | 31° |